createdAt,value
2022-08-24T00:04:16.138Z,3.10
2022-08-24T00:09:23.120Z,3.63
2022-08-24T00:14:30.755Z,3.53
2022-08-24T00:19:36.735Z,3.95
2022-08-24T00:24:43.337Z,3.47
2022-08-24T00:29:50.415Z,3.00
2022-08-24T00:34:58.723Z,3.53
2022-08-24T00:40:07.417Z,3.00
2022-08-24T00:45:17.496Z,2.97
2022-08-24T00:50:25.835Z,2.97
2022-08-24T00:55:36.417Z,3.13
2022-08-24T01:00:48.598Z,4.45
2022-08-24T01:05:54.794Z,3.28
2022-08-24T01:11:03.029Z,3.20
2022-08-24T01:16:11.006Z,3.03
2022-08-24T01:21:19.541Z,2.67
2022-08-24T01:26:30.304Z,2.85
2022-08-24T01:31:36.026Z,3.00
2022-08-24T01:36:44.720Z,2.90
2022-08-24T01:46:58.200Z,3.20
2022-08-24T01:52:06.812Z,3.35
2022-08-24T01:57:16.130Z,3.10
2022-08-24T02:02:27.387Z,2.70
2022-08-24T02:07:33.265Z,2.85
2022-08-24T02:12:43.051Z,2.78
2022-08-24T02:17:49.801Z,2.40
2022-08-24T02:22:56.003Z,1.98
2022-08-24T02:28:03.784Z,2.55
2022-08-24T02:33:10.149Z,2.30
2022-08-24T02:38:16.650Z,2.22
2022-08-24T02:43:24.676Z,2.83
2022-08-24T02:48:30.509Z,2.83
2022-08-24T02:53:36.906Z,1.80
2022-08-24T02:58:44.789Z,1.83
2022-08-24T03:03:50.649Z,2.00
2022-08-24T03:08:57.206Z,2.13
2022-08-24T03:14:04.594Z,2.33
2022-08-24T03:19:11.647Z,1.73
2022-08-24T03:24:20.596Z,1.20
2022-08-24T03:29:28.270Z,1.90
2022-08-24T03:34:39.946Z,1.90
2022-08-24T03:39:48.121Z,1.73
2022-08-24T03:44:55.289Z,1.35
2022-08-24T03:50:01.734Z,1.63
2022-08-24T03:55:11.889Z,1.80
2022-08-24T04:00:19.771Z,2.15
2022-08-24T04:05:35.190Z,2.03
2022-08-24T04:10:45.980Z,2.20
2022-08-24T04:15:53.424Z,1.73
2022-08-24T04:20:59.569Z,1.80
2022-08-24T04:26:06.392Z,1.70
2022-08-24T04:31:15.450Z,1.50
2022-08-24T04:36:24.143Z,1.75
2022-08-24T04:41:31.499Z,2.00
2022-08-24T04:46:40.557Z,1.63
2022-08-24T04:51:47.704Z,1.98
2022-08-24T04:56:54.396Z,3.35
2022-08-24T05:02:02.111Z,2.13
2022-08-24T05:07:08.748Z,2.05
2022-08-24T05:12:21.108Z,2.40
2022-08-24T05:17:37.246Z,1.83
2022-08-24T05:22:43.449Z,2.00
2022-08-24T05:27:50.367Z,2.15
2022-08-24T05:32:58.209Z,2.65
2022-08-24T05:38:04.053Z,2.00
2022-08-24T05:43:14.740Z,2.47
2022-08-24T05:48:22.847Z,2.85
2022-08-24T05:53:47.259Z,3.95
2022-08-24T05:58:54.408Z,4.90
2022-08-24T06:04:02.831Z,9.43
2022-08-24T06:09:09.463Z,9.93
2022-08-24T06:14:18.278Z,7.97
2022-08-24T06:19:39.837Z,5.32
2022-08-24T06:25:04.192Z,4.20
2022-08-24T06:30:13.478Z,3.63
2022-08-24T06:35:48.009Z,2.97
2022-08-24T06:46:00.076Z,2.88
2022-08-24T06:51:13.466Z,3.15
2022-08-24T06:56:20.473Z,2.67
2022-08-24T07:01:28.695Z,3.90
2022-08-24T07:06:37.696Z,3.17
2022-08-24T07:11:44.042Z,3.38
2022-08-24T07:16:50.090Z,4.78
2022-08-24T07:21:59.822Z,6.85
2022-08-24T07:27:06.754Z,5.95
2022-08-24T07:32:12.742Z,4.82
2022-08-24T07:37:22.187Z,4.97
2022-08-24T07:42:32.052Z,4.53
2022-08-24T07:47:43.793Z,4.72
2022-08-24T07:53:18.318Z,5.35
2022-08-24T07:58:28.095Z,4.57
2022-08-24T08:03:35.228Z,4.53
2022-08-24T08:08:43.696Z,4.63
2022-08-24T08:19:11.599Z,4.50
2022-08-24T08:24:23.329Z,4.43
2022-08-24T08:29:34.338Z,3.75
2022-08-24T08:34:40.456Z,3.90
2022-08-24T08:39:48.321Z,4.15
2022-08-24T08:45:08.967Z,4.00
2022-08-24T08:50:20.130Z,3.93
2022-08-24T08:55:32.153Z,3.38
2022-08-24T09:00:54.659Z,4.13
2022-08-24T09:06:28.941Z,3.50
2022-08-24T09:11:43.386Z,3.72
2022-08-24T09:17:01.660Z,3.92
2022-08-24T09:22:15.940Z,4.43
2022-08-24T09:27:29.115Z,3.97
2022-08-24T09:32:57.679Z,4.35
2022-08-24T09:38:09.840Z,4.55
2022-08-24T09:43:35.011Z,4.53
2022-08-24T09:49:06.301Z,4.15
2022-08-24T09:54:41.290Z,3.92
2022-08-24T10:00:10.365Z,4.57
2022-08-24T10:05:31.286Z,5.07
2022-08-24T10:10:47.578Z,4.07
2022-08-24T10:16:16.253Z,4.90
2022-08-24T10:21:28.972Z,5.22
2022-08-24T10:26:42.225Z,4.78
2022-08-24T10:32:06.382Z,6.40
2022-08-24T10:37:29.121Z,5.75
2022-08-24T10:43:03.196Z,6.57
2022-08-24T10:48:33.418Z,6.88
2022-08-24T10:53:40.730Z,6.20
2022-08-24T10:59:00.561Z,5.85
2022-08-24T11:04:11.668Z,6.60
2022-08-24T11:09:19.998Z,5.82
2022-08-24T11:14:29.459Z,5.50
2022-08-24T11:19:37.755Z,5.63
2022-08-24T11:30:15.022Z,6.32
2022-08-24T11:35:26.744Z,5.68
2022-08-24T11:40:42.088Z,6.20
2022-08-24T11:46:00.110Z,5.72
2022-08-24T11:56:25.509Z,5.82
2022-08-24T12:01:44.442Z,4.85
2022-08-24T12:06:59.656Z,5.65
2022-08-24T12:12:13.392Z,4.22
2022-08-24T12:17:26.179Z,5.95
2022-08-24T12:22:34.360Z,5.25
2022-08-24T12:27:40.209Z,5.03
2022-08-24T12:32:48.528Z,4.38
2022-08-24T12:38:00.154Z,4.25
2022-08-24T12:43:09.225Z,5.72
2022-08-24T12:48:17.737Z,5.60
2022-08-24T12:53:48.941Z,5.20
2022-08-24T12:59:02.583Z,5.40
2022-08-24T13:04:17.219Z,4.68
2022-08-24T13:09:35.478Z,6.15
2022-08-24T13:14:41.410Z,5.53
2022-08-24T13:19:49.691Z,4.72
2022-08-24T13:30:20.592Z,5.55
2022-08-24T13:35:55.303Z,5.57
2022-08-24T13:41:07.596Z,5.82
2022-08-24T13:46:19.247Z,4.93
2022-08-24T13:51:36.030Z,4.88
2022-08-24T13:56:59.515Z,4.93
2022-08-24T14:02:11.445Z,5.25
2022-08-24T14:07:21.339Z,5.22
2022-08-24T14:12:50.332Z,3.45
2022-08-24T14:18:07.134Z,4.45
2022-08-24T14:23:25.670Z,5.78
2022-08-24T14:28:40.525Z,5.28
2022-08-24T14:33:54.799Z,5.68
2022-08-24T14:39:07.960Z,5.30
2022-08-24T14:44:25.533Z,4.30
2022-08-24T14:49:39.461Z,4.60
2022-08-24T14:54:52.987Z,5.38
2022-08-24T15:00:09.196Z,5.35
2022-08-24T15:05:23.816Z,6.63
2022-08-24T15:10:37.064Z,5.53
2022-08-24T15:15:50.823Z,4.93
2022-08-24T15:21:06.436Z,5.07
2022-08-24T15:26:16.947Z,4.75
2022-08-24T15:31:27.029Z,4.70
2022-08-24T15:36:34.807Z,5.88
2022-08-24T15:41:43.304Z,6.50
2022-08-24T15:46:53.030Z,4.50
2022-08-24T15:52:01.349Z,4.72
2022-08-24T15:57:11.449Z,4.20
2022-08-24T16:02:30.037Z,4.55
2022-08-24T16:08:01.726Z,4.15
2022-08-24T16:13:16.415Z,4.63
2022-08-24T16:18:23.977Z,4.32
2022-08-24T16:23:32.518Z,4.17
2022-08-24T16:28:38.509Z,4.18
2022-08-24T16:33:49.039Z,5.03
2022-08-24T16:38:54.752Z,4.28
2022-08-24T16:44:02.303Z,3.78
2022-08-24T16:49:12.835Z,4.07
2022-08-24T16:54:20.113Z,4.22
2022-08-24T16:59:29.179Z,3.60
2022-08-24T17:04:36.769Z,4.72
2022-08-24T17:09:45.226Z,3.50
2022-08-24T17:14:51.191Z,3.97
2022-08-24T17:19:58.700Z,4.75
2022-08-24T17:25:04.640Z,3.73
2022-08-24T17:30:11.532Z,4.20
2022-08-24T17:35:18.909Z,5.10
2022-08-24T17:40:27.142Z,4.95
2022-08-24T17:45:33.078Z,3.95
2022-08-24T17:50:40.461Z,4.40
2022-08-24T17:55:46.139Z,4.43
2022-08-24T18:00:52.162Z,5.13
2022-08-24T18:05:59.516Z,4.05
2022-08-24T18:11:05.623Z,3.70
2022-08-24T18:16:15.881Z,4.35
2022-08-24T18:21:24.576Z,3.13
2022-08-24T18:26:32.366Z,4.05
2022-08-24T18:31:39.678Z,3.67
2022-08-24T18:36:48.150Z,4.30
2022-08-24T18:46:59.055Z,4.13
2022-08-24T18:52:09.320Z,4.07
2022-08-24T18:57:15.434Z,4.72
2022-08-24T19:02:34.971Z,4.20
2022-08-24T19:07:45.443Z,4.15
2022-08-24T19:12:55.008Z,4.43
2022-08-24T19:18:00.696Z,4.10
2022-08-24T19:23:10.509Z,3.70
2022-08-24T19:28:17.790Z,4.50
2022-08-24T19:33:26.830Z,4.18
2022-08-24T19:38:34.382Z,3.45
2022-08-24T19:44:00.584Z,2.60
2022-08-24T19:49:06.714Z,2.67
2022-08-24T19:54:15.090Z,2.72
2022-08-24T19:59:23.847Z,3.23
2022-08-24T20:04:29.894Z,1.48
2022-08-24T20:09:37.351Z,1.88
2022-08-24T20:14:43.422Z,2.07
2022-08-24T20:19:49.418Z,1.38
2022-08-24T20:24:56.885Z,2.03
2022-08-24T20:30:02.989Z,1.70
2022-08-24T20:35:10.942Z,1.45
2022-08-24T20:40:19.941Z,1.63
2022-08-24T20:45:25.686Z,1.58
2022-08-24T20:50:31.570Z,1.30
2022-08-24T20:55:39.546Z,1.60
2022-08-24T21:00:46.424Z,1.52
2022-08-24T21:05:52.844Z,2.47
2022-08-24T21:11:00.254Z,1.80
2022-08-24T21:16:06.841Z,3.43
2022-08-24T21:21:12.590Z,1.38
2022-08-24T21:26:26.560Z,1.30
2022-08-24T21:31:32.528Z,1.17
2022-08-24T21:36:38.928Z,1.20
2022-08-24T21:41:46.359Z,1.20
2022-08-24T21:46:53.563Z,1.58
2022-08-24T21:51:59.201Z,1.23
2022-08-24T21:57:07.926Z,1.50
2022-08-24T22:07:20.490Z,1.13
2022-08-24T22:12:28.091Z,1.33
2022-08-24T22:17:33.729Z,2.95
2022-08-24T22:22:40.103Z,1.92
2022-08-24T22:27:48.150Z,1.75
2022-08-24T22:32:53.838Z,1.45
2022-08-24T22:38:00.123Z,1.27
2022-08-24T22:43:07.226Z,1.38
2022-08-24T22:48:12.973Z,1.50
2022-08-24T22:53:18.654Z,1.25
2022-08-24T22:58:25.832Z,2.22
2022-08-24T23:03:32.395Z,1.17
2022-08-24T23:08:38.489Z,1.38
2022-08-24T23:13:45.935Z,1.17
2022-08-24T23:19:08.840Z,0.70
2022-08-24T23:24:15.682Z,1.50
2022-08-24T23:29:22.885Z,1.92
2022-08-24T23:34:29.679Z,2.13
2022-08-24T23:39:35.451Z,1.05
2022-08-24T23:44:42.626Z,1.23
2022-08-24T23:49:48.227Z,1.27
2022-08-24T23:54:53.967Z,1.63
